Meridianville, AL

8:03 AM CST on December 27, 2014 (GMT -0600)
Redstone Army Air Field | Change Station
CLOSE
Current Station
Airport
Location: Redstone Arsenal,
Elevation: 686 ft
Nearby Weather Stations

Elev 686 ft 34.68 °N, 86.68 °W | Updated 5 minutes ago

Overcast
Overcast
50 °F
Feels Like 50 °F
N
8
Wind Variable Wind from SSE

Today
High -- | Low -- °F
--% Chance of Precip.
Yesterday
High -- | Low -- °F
Precip. -- in
6:52 AM 4:42 PM
Waxing Crescent, 37% visible
Pressure 30.29 in
Visibility 9.0 miles
Clouds Scattered Clouds 4000 ft
Overcast 5000 ft
Dew Point 39 °F
Humidity 66%
Rainfall 0.00 in
Snow Depth Not available.
UV 0 out of 12
Pollen .40 out of 12
Air Quality Not available.
Flu Activity Not available.
METAR KHUA 271358Z AUTO 15007KT 9SM SCT040 OVC050 10/04 A3028 RMK AO2 SLP256

More Conditions Fewer Conditions

Pressure 30.29 in
Visibility 9.0 miles
Clouds Scattered Clouds 4000 ft
Overcast 5000 ft
Dew Point 39 °F
Humidity 66%
Rainfall 0.00 in
Snow Depth Not available.
UV 0 out of 12
Pollen .40 out of 12
Air Quality Not available.
Flu Activity Not available.
METAR KHUA 271358Z AUTO 15007KT 9SM SCT040 OVC050 10/04 A3028 RMK AO2 SLP256

More Conditions Fewer Conditions

10-Day Weather Forecast

Almanac

Astronomy

Dec. 27, 2014 Rise Set
Actual Time
Civil Twilight
Nautical Twilight
Astronomical Twilight
Moon
Length of Visible Light
Length of Day
Tomorrow will be .
, % of the Moon is Illuminated

Today's Extremes

State Highs State Lows

Community

WunderPhotos

Upload Photos

1,780,905 photos uploaded!

WunderBlogs® & News

Nearby

Air Quality

  Air Quality AQ Index Pollutant
Not available.

Snow Depth

Station Depth Elevation

Earthquake Activity

City Distance Mag. Time & Date
Minimum magnitude displayed is 2.5.

Coastal Water Temperatures

Place Temperature

Nearby Weather Stations